createdAt,value
2017-12-02T00:00:28.905Z,40.17
2017-12-02T00:02:56.420Z,40.47
2017-12-02T00:05:23.942Z,42.23
2017-12-02T00:07:51.456Z,39.80
2017-12-02T00:10:18.972Z,42.17
2017-12-02T00:12:46.594Z,43.20
2017-12-02T00:15:14.110Z,44.03
2017-12-02T00:17:41.725Z,42.73
2017-12-02T00:20:09.246Z,42.97
2017-12-02T00:22:36.767Z,46.50
2017-12-02T00:25:04.388Z,39.23
2017-12-02T00:27:31.958Z,48.97
2017-12-02T00:29:59.507Z,49.57
2017-12-02T00:32:27.016Z,48.20
2017-12-02T00:34:54.527Z,50.03
2017-12-02T00:37:22.687Z,47.63
2017-12-02T00:39:50.224Z,45.97
2017-12-02T00:42:17.826Z,50.73
2017-12-02T00:44:45.406Z,50.00
2017-12-02T00:47:12.977Z,43.60
2017-12-02T00:49:40.500Z,48.00
2017-12-02T00:52:08.059Z,45.33
2017-12-02T00:54:35.583Z,46.10
2017-12-02T00:57:03.186Z,47.77
2017-12-02T00:59:30.739Z,46.93
2017-12-02T01:01:58.253Z,44.47
2017-12-02T01:04:25.771Z,44.23
2017-12-02T01:06:53.295Z,46.43
2017-12-02T01:09:20.873Z,47.83
2017-12-02T01:11:48.405Z,41.37
2017-12-02T01:14:15.918Z,48.57
2017-12-02T01:16:43.419Z,52.03
2017-12-02T01:19:10.951Z,42.43
2017-12-02T01:21:38.473Z,46.20
2017-12-02T01:24:05.992Z,41.17
2017-12-02T01:26:33.529Z,49.73
2017-12-02T01:29:01.048Z,47.13
2017-12-02T01:31:28.569Z,43.97
2017-12-02T01:33:56.083Z,43.27
2017-12-02T01:36:23.598Z,42.30
2017-12-02T01:38:51.112Z,42.97
2017-12-02T01:41:18.632Z,42.53
2017-12-02T01:43:46.141Z,43.50
2017-12-02T01:46:13.706Z,45.30
2017-12-02T01:48:41.320Z,46.67
2017-12-02T01:51:08.837Z,43.03
2017-12-02T01:53:36.437Z,45.43
2017-12-02T04:30:21.558Z,47.77
2017-12-02T04:32:49.079Z,45.50
2017-12-02T04:35:16.603Z,46.37
2017-12-02T04:37:44.117Z,47.67
2017-12-02T04:40:11.624Z,47.47
2017-12-02T04:42:39.135Z,44.60
2017-12-02T04:45:06.742Z,47.40
2017-12-02T04:47:34.288Z,44.43
2017-12-02T04:50:01.805Z,42.37
2017-12-02T04:52:29.411Z,40.20
2017-12-02T04:54:56.974Z,40.97
2017-12-02T04:57:24.489Z,41.63
2017-12-02T04:59:52.013Z,44.40
2017-12-02T05:02:19.530Z,44.17
2017-12-02T05:04:47.050Z,47.80
2017-12-02T05:07:14.576Z,49.57
2017-12-02T05:09:42.098Z,50.77
2017-12-02T05:12:09.632Z,45.67
2017-12-02T05:14:37.250Z,53.67
2017-12-02T05:17:04.761Z,48.60
2017-12-02T05:19:32.370Z,50.47
2017-12-02T05:21:59.930Z,47.47
2017-12-02T05:24:27.452Z,49.23
2017-12-02T05:26:55.049Z,46.20
2017-12-02T05:29:22.568Z,49.00
2017-12-02T05:31:50.077Z,44.03
2017-12-02T05:34:17.620Z,48.77
2017-12-02T05:36:45.133Z,44.33
2017-12-02T05:39:12.642Z,45.90
2017-12-02T05:41:40.146Z,47.20
2017-12-02T05:44:07.776Z,47.10
2017-12-02T05:46:35.293Z,53.57
2017-12-02T05:49:02.884Z,49.70
2017-12-02T05:51:30.393Z,54.20
2017-12-02T05:53:58.001Z,48.47
2017-12-02T05:56:25.506Z,46.90
2017-12-02T05:58:53.022Z,48.97
2017-12-02T06:01:20.582Z,48.53
2017-12-02T06:03:48.088Z,48.60
2017-12-02T06:06:15.607Z,46.00
2017-12-02T06:08:43.123Z,49.03
2017-12-02T06:11:10.645Z,47.03
2017-12-02T06:13:38.161Z,44.63
2017-12-02T06:16:05.673Z,46.13
2017-12-02T06:18:33.194Z,47.17
2017-12-02T06:21:00.698Z,44.07
2017-12-02T06:23:28.320Z,45.87
2017-12-02T06:25:55.841Z,49.77
2017-12-02T06:28:23.443Z,45.40
2017-12-02T06:30:51.029Z,48.07
2017-12-02T06:33:18.552Z,48.77
2017-12-02T06:35:46.068Z,53.27
2017-12-02T06:38:13.576Z,47.40
2017-12-02T06:40:41.102Z,47.23
2017-12-02T06:43:08.617Z,51.00
2017-12-02T06:45:36.261Z,51.13
2017-12-02T06:48:03.781Z,46.63
2017-12-02T06:50:31.374Z,43.77
2017-12-02T06:52:58.890Z,45.30
2017-12-02T06:55:26.402Z,43.23
2017-12-02T06:57:53.917Z,43.97
2017-12-02T07:00:21.442Z,42.87
2017-12-02T07:02:48.975Z,43.87
2017-12-02T07:05:16.492Z,44.97
2017-12-02T07:07:44.017Z,39.93
2017-12-02T07:10:11.534Z,43.77
2017-12-02T07:12:39.048Z,41.37
2017-12-02T07:15:06.563Z,37.33
2017-12-02T07:17:34.086Z,40.93
2017-12-02T07:20:01.605Z,44.43
2017-12-02T07:22:29.121Z,43.27
2017-12-02T07:24:56.667Z,42.90
2017-12-02T07:27:24.180Z,42.83
2017-12-02T07:29:51.726Z,42.87
2017-12-02T07:32:19.283Z,39.13
2017-12-02T07:34:46.805Z,42.63
2017-12-02T07:37:14.332Z,39.27
2017-12-02T07:39:41.844Z,39.57
2017-12-02T07:42:09.357Z,39.97
2017-12-02T07:44:36.869Z,38.93
2017-12-02T07:47:04.377Z,44.33
2017-12-02T07:49:32.001Z,36.10
2017-12-02T07:54:52.693Z,40.10
2017-12-02T07:57:20.285Z,38.40
2017-12-02T07:59:47.809Z,39.07
2017-12-02T08:02:15.328Z,40.10
2017-12-02T08:04:42.846Z,40.27
2017-12-02T08:07:10.373Z,38.67
2017-12-02T08:09:37.898Z,37.37
2017-12-02T08:12:05.412Z,38.57
2017-12-02T08:14:32.935Z,38.30
2017-12-02T08:17:00.465Z,38.13
2017-12-02T08:19:28.000Z,33.03
2017-12-02T08:21:55.515Z,37.33
2017-12-02T08:24:23.030Z,35.07
2017-12-02T08:26:50.552Z,37.13
2017-12-02T08:29:18.079Z,39.87
2017-12-02T08:31:45.602Z,36.03
2017-12-02T08:34:13.130Z,37.47
2017-12-02T08:36:40.666Z,43.27
2017-12-02T08:39:08.177Z,40.57
2017-12-02T08:41:35.691Z,39.03
2017-12-02T08:44:03.220Z,37.43
2017-12-02T08:46:30.738Z,38.13
2017-12-02T08:48:58.260Z,34.10
2017-12-02T08:51:25.804Z,36.90
2017-12-02T08:53:53.327Z,39.17
2017-12-02T08:56:20.851Z,34.57
2017-12-02T08:58:48.380Z,34.80
2017-12-02T09:01:15.901Z,36.60
2017-12-02T09:03:43.427Z,35.70
2017-12-02T09:06:10.948Z,37.03
2017-12-02T09:08:38.487Z,34.83
2017-12-02T09:11:06.007Z,35.50
2017-12-02T09:13:33.553Z,38.83
2017-12-02T09:16:01.190Z,39.60
2017-12-02T09:18:28.719Z,41.03
2017-12-02T09:20:56.247Z,36.37
2017-12-02T09:23:23.773Z,37.73
2017-12-02T09:25:51.308Z,40.10
2017-12-02T09:28:18.835Z,38.40
2017-12-02T09:30:46.449Z,37.50
2017-12-02T09:33:13.980Z,36.17
2017-12-02T09:35:41.502Z,35.13
2017-12-02T09:38:09.025Z,33.67
2017-12-02T09:40:36.546Z,31.43
2017-12-02T09:43:04.081Z,35.77
2017-12-02T09:45:31.594Z,37.57
2017-12-02T09:47:59.110Z,34.43
2017-12-02T09:50:26.654Z,33.77
2017-12-02T09:52:54.182Z,32.43
2017-12-02T09:55:21.698Z,34.90
2017-12-02T09:57:49.233Z,31.37
2017-12-02T10:00:16.750Z,31.00
2017-12-02T10:02:44.274Z,31.93
2017-12-02T10:05:12.219Z,32.03
2017-12-02T10:07:39.735Z,33.90
2017-12-02T10:10:07.249Z,32.07
2017-12-02T10:12:34.760Z,31.37
2017-12-02T10:15:02.296Z,31.57
2017-12-02T10:17:29.820Z,32.33
2017-12-02T10:19:57.346Z,26.40
2017-12-02T10:22:24.871Z,27.80
2017-12-02T10:24:52.388Z,27.87
2017-12-02T10:27:19.917Z,28.43
2017-12-02T10:29:47.437Z,29.27
2017-12-02T10:32:14.966Z,26.67
2017-12-02T10:34:42.486Z,21.13
2017-12-02T10:37:10.012Z,17.73
2017-12-02T10:39:37.543Z,19.93
2017-12-02T10:42:05.071Z,21.00
2017-12-02T10:44:32.603Z,17.87
2017-12-02T10:47:00.149Z,22.23
2017-12-02T10:49:27.682Z,22.67
2017-12-02T10:51:55.201Z,24.50
2017-12-02T10:54:22.716Z,22.47
2017-12-02T10:56:50.234Z,21.07
2017-12-02T10:59:17.748Z,21.03
2017-12-02T11:01:45.274Z,21.53
2017-12-02T11:04:12.793Z,22.57
2017-12-02T11:06:40.325Z,25.17
2017-12-02T11:09:07.847Z,21.43
2017-12-02T11:11:35.361Z,18.27
2017-12-02T11:14:02.873Z,21.80
2017-12-02T11:16:30.388Z,24.07
2017-12-02T11:18:57.914Z,21.80
2017-12-02T11:21:25.439Z,23.80
2017-12-02T11:23:52.953Z,22.80
2017-12-02T11:26:20.479Z,23.57
2017-12-02T11:28:48.000Z,23.63
2017-12-02T11:31:15.514Z,23.50
2017-12-02T11:33:43.042Z,24.20
2017-12-02T11:36:10.578Z,23.97
2017-12-02T11:38:38.108Z,24.63
2017-12-02T11:41:05.631Z,22.47
2017-12-02T11:43:33.149Z,22.27
2017-12-02T11:46:00.674Z,20.30
2017-12-02T11:48:28.199Z,21.00
2017-12-02T11:50:55.726Z,22.60
2017-12-02T11:53:23.259Z,21.53
2017-12-02T11:55:50.773Z,22.40
2017-12-02T11:58:18.297Z,20.80
2017-12-02T12:00:45.825Z,24.53
2017-12-02T12:03:13.358Z,23.73
2017-12-02T12:05:40.875Z,23.63
2017-12-02T12:08:08.398Z,22.23
2017-12-02T12:10:35.931Z,22.60
2017-12-02T12:13:03.453Z,21.60
2017-12-02T12:15:30.980Z,22.43
2017-12-02T12:17:58.500Z,21.97
2017-12-02T12:20:26.017Z,20.03
2017-12-02T12:22:53.543Z,21.10
2017-12-02T12:25:21.069Z,23.30
2017-12-02T12:27:48.600Z,21.07
2017-12-02T12:30:16.130Z,24.07
2017-12-02T12:32:43.671Z,21.17
2017-12-02T12:35:11.193Z,19.90
2017-12-02T12:37:38.722Z,19.27
2017-12-02T12:40:06.245Z,20.00
2017-12-02T12:42:33.762Z,19.73
2017-12-02T12:45:01.285Z,22.07
2017-12-02T12:47:28.817Z,19.40
2017-12-02T12:49:56.337Z,18.53
2017-12-02T12:52:23.856Z,20.93
2017-12-02T12:54:51.399Z,20.27
2017-12-02T12:57:19.255Z,20.40
2017-12-02T12:59:46.906Z,20.43
2017-12-02T13:02:14.615Z,19.70
2017-12-02T13:04:43.437Z,22.73
2017-12-02T13:07:18.498Z,21.03
2017-12-02T13:09:46.108Z,21.50
2017-12-02T13:12:13.636Z,22.97
2017-12-02T13:14:41.168Z,22.03
2017-12-02T13:17:08.694Z,22.80
2017-12-02T13:19:36.213Z,22.87
2017-12-02T13:22:03.735Z,22.73
2017-12-02T13:24:31.259Z,22.80
2017-12-02T13:26:58.790Z,23.70
2017-12-02T13:29:26.322Z,22.50
2017-12-02T13:31:53.850Z,22.00
2017-12-02T13:34:21.377Z,22.97
2017-12-02T13:36:48.899Z,19.27
2017-12-02T13:39:16.452Z,19.50
2017-12-02T13:41:43.978Z,21.00
2017-12-02T13:44:11.502Z,21.33
2017-12-02T13:46:39.033Z,19.63
2017-12-02T13:49:06.572Z,21.10
2017-12-02T13:51:34.092Z,25.00
2017-12-02T13:54:01.619Z,21.43
2017-12-02T13:56:29.178Z,21.03
2017-12-02T13:58:58.258Z,21.03
2017-12-02T14:01:25.952Z,21.83
2017-12-02T14:03:53.618Z,22.10
2017-12-02T14:06:21.660Z,24.37
2017-12-02T14:08:49.997Z,24.73
2017-12-02T14:11:17.665Z,23.83
2017-12-02T14:13:45.192Z,25.37
2017-12-02T14:16:12.839Z,21.67
2017-12-02T14:18:40.363Z,25.03
2017-12-02T14:21:07.909Z,24.93
2017-12-02T14:23:35.451Z,25.13
2017-12-02T14:26:03.428Z,22.70
2017-12-02T14:28:30.964Z,22.07
2017-12-02T14:30:58.942Z,23.77
2017-12-02T14:33:26.477Z,24.77
2017-12-02T14:35:54.007Z,24.23
2017-12-02T14:38:21.524Z,23.83
2017-12-02T14:40:49.107Z,24.93
2017-12-02T14:43:16.658Z,23.70
2017-12-02T14:45:44.247Z,24.87
2017-12-02T14:48:11.793Z,28.35
2017-12-02T14:50:39.310Z,24.13
2017-12-02T14:53:06.927Z,23.30
2017-12-02T14:55:34.458Z,23.17
2017-12-02T14:58:03.413Z,22.77
2017-12-02T15:00:30.981Z,25.90
2017-12-02T15:02:58.503Z,22.87
2017-12-02T15:05:26.042Z,22.67
2017-12-02T15:07:53.591Z,25.43
2017-12-02T15:10:21.177Z,26.90
2017-12-02T15:12:48.705Z,22.80
2017-12-02T15:15:16.221Z,24.47
2017-12-02T15:17:43.741Z,25.93
2017-12-02T15:20:11.286Z,27.00
2017-12-02T15:22:38.818Z,23.90
2017-12-02T15:25:06.369Z,25.00
2017-12-02T15:27:33.892Z,25.00
2017-12-02T15:30:01.488Z,25.57
2017-12-02T15:32:28.979Z,24.73
2017-12-02T15:34:56.508Z,27.47
2017-12-02T15:37:24.030Z,28.33
2017-12-02T15:39:51.585Z,25.53
2017-12-02T15:42:19.122Z,26.13
2017-12-02T15:44:46.641Z,27.23
2017-12-02T15:47:14.189Z,23.47
2017-12-02T15:49:41.723Z,23.70
2017-12-02T15:52:09.288Z,26.37
2017-12-02T15:54:36.807Z,27.97
2017-12-02T15:57:04.328Z,28.83
2017-12-02T15:59:31.843Z,28.03
2017-12-02T16:01:59.684Z,30.23
2017-12-02T16:04:27.250Z,28.40
2017-12-02T16:06:54.774Z,30.13
2017-12-02T16:09:22.346Z,29.77
2017-12-02T16:11:49.881Z,33.87
2017-12-02T16:14:17.401Z,34.67
2017-12-02T16:16:44.926Z,31.70
2017-12-02T16:19:12.455Z,30.63
2017-12-02T16:21:40.011Z,33.37
2017-12-02T16:24:07.615Z,33.27
2017-12-02T16:26:35.313Z,36.47
2017-12-02T16:29:02.871Z,37.67
2017-12-02T16:31:30.514Z,34.00
2017-12-02T16:33:58.251Z,38.33
2017-12-02T16:36:27.096Z,37.80
2017-12-02T16:38:55.335Z,39.63
2017-12-02T16:41:23.419Z,39.23
2017-12-02T16:43:51.032Z,39.87
2017-12-02T16:46:18.802Z,39.00
2017-12-02T16:48:46.489Z,42.03
2017-12-02T16:51:14.166Z,41.33
2017-12-02T16:53:43.567Z,40.07
2017-12-02T16:56:11.274Z,38.10
2017-12-02T16:58:39.017Z,43.47
2017-12-02T17:01:06.646Z,40.60
2017-12-02T17:03:34.203Z,42.53
2017-12-02T17:06:01.751Z,41.47
2017-12-02T17:08:29.316Z,38.23
2017-12-02T17:10:56.834Z,40.57
2017-12-02T17:13:24.356Z,36.80
2017-12-02T17:15:52.094Z,41.83
2017-12-02T17:18:19.831Z,39.13
2017-12-02T17:20:47.670Z,41.10
2017-12-02T17:23:15.686Z,40.80
2017-12-02T17:25:43.618Z,39.17
2017-12-02T17:28:11.407Z,40.33
2017-12-02T17:30:39.232Z,40.90
2017-12-02T17:33:06.750Z,43.73
2017-12-02T17:35:34.265Z,42.33
2017-12-02T17:38:01.785Z,40.67
2017-12-02T17:40:29.301Z,40.23
2017-12-02T17:42:56.834Z,40.63
2017-12-02T17:45:24.350Z,38.77
2017-12-02T17:47:51.861Z,38.70
2017-12-02T17:50:19.376Z,41.43
2017-12-02T17:52:46.895Z,39.87
2017-12-02T17:55:14.414Z,42.10
2017-12-02T17:57:41.933Z,40.10
2017-12-02T18:00:09.454Z,38.47
2017-12-02T18:02:36.969Z,36.70
2017-12-02T18:05:04.485Z,37.60
2017-12-02T18:07:32.005Z,40.63
2017-12-02T18:09:59.525Z,37.67
2017-12-02T18:12:27.048Z,33.90
2017-12-02T18:14:54.566Z,36.50
2017-12-02T18:17:22.086Z,33.27
2017-12-02T18:19:49.611Z,34.60
2017-12-02T18:22:17.139Z,34.67
2017-12-02T18:24:44.664Z,34.27
2017-12-02T18:27:12.190Z,32.90
2017-12-02T18:29:39.704Z,39.47
2017-12-02T18:32:07.224Z,36.77
2017-12-02T18:34:34.740Z,36.20
2017-12-02T18:37:02.263Z,37.67
2017-12-02T18:39:29.799Z,36.47
2017-12-02T18:41:57.317Z,38.37
2017-12-02T18:44:24.840Z,35.17
2017-12-02T18:46:52.360Z,34.93
2017-12-02T18:49:19.908Z,37.73
2017-12-02T18:51:47.444Z,35.80
2017-12-02T18:54:14.957Z,34.30
2017-12-02T18:56:42.470Z,37.50
2017-12-02T18:59:09.982Z,34.77
2017-12-02T19:01:37.513Z,34.77
2017-12-02T19:04:05.046Z,34.53
2017-12-02T19:06:32.569Z,33.50
2017-12-02T19:09:00.308Z,36.37
2017-12-02T19:11:27.843Z,30.97
2017-12-02T19:13:55.411Z,34.53
2017-12-02T19:16:22.997Z,36.57
2017-12-02T19:18:50.558Z,36.27
2017-12-02T19:21:18.073Z,33.40
2017-12-02T19:23:45.783Z,31.63
2017-12-02T19:26:13.348Z,34.43
2017-12-02T19:28:40.896Z,31.93
2017-12-02T19:31:08.415Z,35.50
2017-12-02T19:33:35.936Z,36.93
2017-12-02T19:36:03.453Z,33.20
2017-12-02T19:38:30.990Z,34.77
2017-12-02T19:40:58.509Z,36.73
2017-12-02T19:43:26.056Z,35.50
2017-12-02T19:45:53.582Z,37.80
2017-12-02T19:48:21.143Z,39.40
2017-12-02T19:50:48.670Z,40.03
2017-12-02T19:53:16.299Z,39.47
2017-12-02T19:55:43.817Z,34.93
2017-12-02T19:58:11.429Z,37.67
2017-12-02T20:00:41.409Z,34.63
2017-12-02T20:03:08.933Z,37.23
2017-12-02T20:05:36.552Z,40.77
2017-12-02T20:08:04.069Z,40.57
2017-12-02T20:10:31.610Z,36.73
2017-12-02T20:12:59.144Z,36.53
2017-12-02T20:15:26.661Z,43.23
2017-12-02T20:17:54.367Z,40.63
2017-12-02T20:20:21.877Z,42.43
2017-12-02T20:22:49.435Z,46.33
2017-12-02T20:25:16.958Z,42.77
2017-12-02T20:27:44.604Z,43.20
2017-12-02T20:30:12.156Z,43.97
2017-12-02T20:32:39.677Z,43.37
2017-12-02T20:35:07.212Z,45.80
2017-12-02T20:37:34.943Z,43.40
2017-12-02T20:40:02.472Z,45.17
2017-12-02T20:42:30.026Z,43.53
2017-12-02T20:44:57.638Z,46.90
2017-12-02T20:47:25.292Z,43.30
2017-12-02T20:49:52.824Z,40.87
2017-12-02T20:52:20.406Z,45.70
2017-12-02T20:54:48.129Z,47.80
2017-12-02T20:57:15.657Z,39.97
2017-12-02T20:59:43.179Z,33.83
2017-12-02T21:02:10.757Z,37.83
2017-12-02T21:04:38.277Z,34.00
2017-12-02T21:07:05.810Z,35.70
2017-12-02T21:09:33.326Z,33.97
2017-12-02T21:12:00.852Z,33.80
2017-12-02T21:14:28.420Z,33.10
2017-12-02T21:16:55.934Z,30.47
2017-12-02T21:19:23.464Z,29.17
2017-12-02T21:21:50.980Z,29.90
2017-12-02T21:24:18.518Z,31.97
2017-12-02T21:26:46.040Z,29.57
2017-12-02T21:29:13.559Z,31.60
2017-12-02T21:31:41.091Z,32.57
2017-12-02T21:34:08.604Z,31.87
2017-12-02T21:36:36.323Z,28.67
2017-12-02T21:39:03.845Z,33.20
2017-12-02T21:41:31.484Z,33.20
2017-12-02T21:43:58.997Z,31.17
2017-12-02T21:46:26.509Z,30.87
2017-12-02T21:48:54.024Z,29.87
2017-12-02T21:51:21.538Z,30.80
2017-12-02T21:53:49.054Z,33.77
2017-12-02T21:56:16.579Z,31.40
2017-12-02T21:58:44.099Z,37.10
2017-12-02T22:01:11.617Z,34.03
2017-12-02T22:03:39.132Z,31.63
2017-12-02T22:06:06.672Z,36.77
2017-12-02T22:08:34.186Z,32.77
2017-12-02T22:11:01.788Z,34.27
2017-12-02T22:13:29.307Z,35.93
2017-12-02T22:15:56.820Z,34.77
2017-12-02T22:18:24.374Z,33.50
2017-12-02T22:20:51.927Z,36.37
2017-12-02T22:23:19.482Z,34.13
2017-12-02T22:25:47.118Z,36.23
2017-12-02T22:28:14.635Z,34.97
2017-12-02T22:30:42.209Z,37.87
2017-12-02T22:33:09.723Z,33.60
2017-12-02T22:35:37.247Z,36.80
2017-12-02T22:38:04.773Z,37.07
2017-12-02T22:40:32.298Z,38.93
2017-12-02T22:42:59.815Z,34.37
2017-12-02T22:45:27.334Z,38.47
2017-12-02T22:47:55.056Z,37.43
2017-12-02T22:50:22.567Z,37.63
2017-12-02T22:52:50.137Z,40.00
2017-12-02T22:55:17.653Z,39.97
2017-12-02T22:57:46.104Z,39.40
2017-12-02T23:00:13.616Z,42.67
2017-12-02T23:02:41.153Z,37.43
2017-12-02T23:05:08.678Z,40.83
2017-12-02T23:07:36.202Z,40.33
2017-12-02T23:10:03.733Z,41.30
2017-12-02T23:12:31.317Z,47.00
2017-12-02T23:14:59.017Z,45.53
2017-12-02T23:17:26.566Z,43.53
2017-12-02T23:19:54.169Z,45.13
2017-12-02T23:22:22.518Z,44.30
2017-12-02T23:24:50.033Z,41.43
2017-12-02T23:27:17.550Z,43.47
2017-12-02T23:29:45.062Z,42.80
2017-12-02T23:32:12.569Z,42.37
2017-12-02T23:34:40.087Z,41.77
2017-12-02T23:37:08.346Z,42.83
2017-12-02T23:39:36.383Z,44.20
2017-12-02T23:42:03.908Z,43.60
2017-12-02T23:44:32.368Z,44.93
2017-12-02T23:47:00.241Z,48.80
2017-12-02T23:49:27.778Z,49.57
2017-12-02T23:51:55.345Z,47.60
2017-12-02T23:54:22.905Z,42.20
2017-12-02T23:56:50.415Z,45.67
2017-12-02T23:59:17.937Z,48.37
